createdAt,value
2018-09-10T00:00:22.698Z,11.67
2018-09-10T00:02:52.243Z,11.67
2018-09-10T00:05:22.627Z,11.66
2018-09-10T00:07:51.992Z,11.51
2018-09-10T00:10:21.436Z,11.48
2018-09-10T00:12:50.852Z,11.76
2018-09-10T00:15:20.842Z,11.59
2018-09-10T00:17:50.199Z,11.50
2018-09-10T00:20:22.631Z,11.44
2018-09-10T00:22:52.940Z,11.45
2018-09-10T00:25:23.302Z,11.38
2018-09-10T00:27:52.685Z,11.37
2018-09-10T00:30:22.109Z,11.28
2018-09-10T00:32:52.122Z,11.42
2018-09-10T00:35:22.507Z,11.31
2018-09-10T00:37:52.250Z,11.26
2018-09-10T00:40:24.621Z,11.33
2018-09-10T00:42:53.872Z,11.31
2018-09-10T00:45:23.284Z,11.29
2018-09-10T00:47:52.653Z,11.19
2018-09-10T00:50:22.316Z,11.18
2018-09-10T00:52:51.838Z,11.15
2018-09-10T00:55:21.960Z,11.23
2018-09-10T00:57:51.406Z,11.13
2018-09-10T01:00:20.749Z,11.12
2018-09-10T01:02:50.225Z,11.12
2018-09-10T01:05:19.968Z,11.13
2018-09-10T01:07:49.498Z,11.09
2018-09-10T01:10:19.037Z,11.17
2018-09-10T01:12:48.417Z,11.02
2018-09-10T01:15:18.918Z,11.17
2018-09-10T01:17:49.145Z,11.19
2018-09-10T01:20:19.182Z,10.93
2018-09-10T01:22:48.484Z,10.89
2018-09-10T01:25:18.589Z,10.88
2018-09-10T01:27:48.483Z,10.92
2018-09-10T01:30:17.869Z,10.89
2018-09-10T01:32:47.143Z,10.87
2018-09-10T01:35:16.513Z,10.88
2018-09-10T01:37:45.981Z,10.76
2018-09-10T01:40:15.188Z,10.69
2018-09-10T01:42:44.447Z,10.74
2018-09-10T01:45:14.436Z,10.80
2018-09-10T01:47:46.349Z,10.68
2018-09-10T01:50:15.642Z,10.65
2018-09-10T01:52:44.970Z,10.74
2018-09-10T01:55:14.327Z,10.73
2018-09-10T01:57:44.442Z,10.72
2018-09-10T02:00:14.461Z,10.63
2018-09-10T02:02:43.862Z,10.65
2018-09-10T02:05:13.973Z,10.56
2018-09-10T02:07:43.335Z,10.55
2018-09-10T02:10:14.804Z,10.52
2018-09-10T02:12:45.166Z,10.52
2018-09-10T02:15:14.400Z,10.53
2018-09-10T02:17:44.684Z,10.45
2018-09-10T02:20:14.172Z,10.43
2018-09-10T02:22:43.712Z,10.38
2018-09-10T02:25:13.173Z,10.37
2018-09-10T02:27:42.652Z,10.41
2018-09-10T02:30:11.970Z,10.34
2018-09-10T02:32:42.140Z,10.31
2018-09-10T02:35:11.460Z,10.25
2018-09-10T02:37:40.812Z,10.24
2018-09-10T02:40:10.177Z,10.21
2018-09-10T02:42:39.483Z,10.16
2018-09-10T02:45:08.906Z,10.21
2018-09-10T02:47:38.154Z,10.23
2018-09-10T02:50:07.527Z,10.21
2018-09-10T02:52:36.765Z,10.20
2018-09-10T02:55:06.545Z,10.19
2018-09-10T02:57:35.847Z,10.12
2018-09-10T03:00:05.495Z,10.13
2018-09-10T03:02:34.853Z,10.08
2018-09-10T03:05:05.163Z,10.04
2018-09-10T03:07:34.470Z,10.03
2018-09-10T03:10:05.121Z,10.00
2018-09-10T03:12:34.593Z,10.05
2018-09-10T03:15:04.016Z,10.05
2018-09-10T03:17:34.661Z,10.00
2018-09-10T03:20:04.188Z,10.07
2018-09-10T03:22:33.625Z,9.89
2018-09-10T03:25:03.071Z,9.93
2018-09-10T03:27:32.489Z,10.02
2018-09-10T03:30:03.730Z,10.03
2018-09-10T03:32:33.167Z,9.99
2018-09-10T03:35:03.405Z,9.90
2018-09-10T03:37:34.519Z,9.99
2018-09-10T03:40:03.960Z,10.00
2018-09-10T03:42:33.380Z,9.90
2018-09-10T03:45:03.014Z,9.87
2018-09-10T03:47:32.425Z,9.91
2018-09-10T03:50:02.793Z,9.92
2018-09-10T03:52:32.077Z,9.84
2018-09-10T03:55:02.563Z,9.86
2018-09-10T03:57:31.925Z,9.83
2018-09-10T04:00:02.280Z,9.77
2018-09-10T04:02:32.341Z,9.69
2018-09-10T04:05:01.790Z,9.66
2018-09-10T04:07:31.932Z,9.69
2018-09-10T04:10:01.425Z,9.67
2018-09-10T04:12:30.815Z,9.65
2018-09-10T04:15:01.531Z,9.55
2018-09-10T04:17:31.062Z,9.42
2018-09-10T04:20:06.643Z,9.58
2018-09-10T04:22:36.066Z,9.55
2018-09-10T04:25:05.948Z,9.51
2018-09-10T04:27:35.927Z,9.38
2018-09-10T04:30:06.158Z,9.27
2018-09-10T04:32:35.770Z,9.35
2018-09-10T04:35:05.307Z,9.36
2018-09-10T04:37:34.685Z,9.43
2018-09-10T04:40:05.385Z,9.45
2018-09-10T04:42:35.495Z,9.49
2018-09-10T04:45:07.467Z,9.45
2018-09-10T04:47:37.121Z,9.55
2018-09-10T04:50:07.577Z,9.59
2018-09-10T04:52:37.032Z,9.55
2018-09-10T04:55:07.466Z,9.58
2018-09-10T04:57:36.830Z,9.52
2018-09-10T05:00:06.446Z,9.52
2018-09-10T05:02:35.656Z,9.49
2018-09-10T05:05:06.372Z,9.47
2018-09-10T05:07:35.799Z,9.55
2018-09-10T05:10:06.101Z,9.56
2018-09-10T05:12:36.477Z,9.56
2018-09-10T05:15:07.146Z,9.63
2018-09-10T05:17:36.423Z,9.96
2018-09-10T05:20:06.102Z,12.35
2018-09-10T05:22:35.507Z,15.36
2018-09-10T05:25:04.964Z,15.91
2018-09-10T05:27:34.051Z,17.00
2018-09-10T05:30:03.385Z,17.67
2018-09-10T05:32:33.490Z,18.02
2018-09-10T05:35:03.546Z,18.43
2018-09-10T05:37:34.016Z,16.43
2018-09-10T05:40:03.438Z,14.35
2018-09-10T05:42:39.333Z,13.61
2018-09-10T05:45:11.189Z,13.21
2018-09-10T05:47:42.632Z,13.03
2018-09-10T05:50:12.942Z,13.11
2018-09-10T05:52:43.809Z,12.96
2018-09-10T05:55:13.224Z,12.88
2018-09-10T05:57:43.565Z,12.87
2018-09-10T06:00:13.820Z,12.89
2018-09-10T06:02:43.097Z,13.00
2018-09-10T06:05:12.517Z,13.24
2018-09-10T06:07:41.865Z,13.40
2018-09-10T06:10:11.490Z,13.64
2018-09-10T06:12:40.932Z,13.73
2018-09-10T06:15:11.208Z,13.77
2018-09-10T06:17:40.470Z,13.93
2018-09-10T06:20:09.853Z,13.75
2018-09-10T06:22:42.475Z,13.93
2018-09-10T06:25:11.991Z,14.00
2018-09-10T06:27:41.998Z,14.15
2018-09-10T06:30:11.371Z,14.35
2018-09-10T06:32:41.648Z,14.01
2018-09-10T06:35:11.611Z,14.53
2018-09-10T06:37:41.163Z,14.64
2018-09-10T06:40:12.744Z,14.87
2018-09-10T06:42:43.330Z,14.26
2018-09-10T06:45:12.636Z,14.23
2018-09-10T06:47:43.345Z,14.51
2018-09-10T06:50:16.766Z,14.42
2018-09-10T06:52:46.183Z,14.34
2018-09-10T06:55:15.969Z,14.93
2018-09-10T06:57:45.419Z,14.79
2018-09-10T07:00:14.716Z,14.86
2018-09-10T07:02:44.171Z,14.82
2018-09-10T07:05:13.380Z,14.63
2018-09-10T07:07:42.748Z,14.89
2018-09-10T07:10:12.247Z,15.50
2018-09-10T07:12:41.583Z,15.10
2018-09-10T07:15:11.015Z,14.76
2018-09-10T07:17:40.355Z,14.95
2018-09-10T07:20:09.619Z,15.07
2018-09-10T07:22:38.944Z,15.13
2018-09-10T07:25:08.307Z,15.38
2018-09-10T07:27:37.591Z,15.89
2018-09-10T07:30:07.531Z,16.20
2018-09-10T07:32:36.990Z,16.31
2018-09-10T07:35:06.260Z,15.96
2018-09-10T07:37:35.497Z,16.35
2018-09-10T07:40:04.887Z,16.21
2018-09-10T07:42:35.359Z,16.29
2018-09-10T07:45:05.036Z,16.44
2018-09-10T07:47:34.503Z,16.69
2018-09-10T07:50:04.027Z,17.30
2018-09-10T07:52:33.507Z,17.11
2018-09-10T07:55:02.860Z,17.19
2018-09-10T07:57:32.282Z,17.52
2018-09-10T08:00:02.042Z,17.84
2018-09-10T08:02:31.467Z,17.80
2018-09-10T08:05:00.815Z,17.97
2018-09-10T08:07:30.187Z,18.66
2018-09-10T08:09:59.611Z,18.83
2018-09-10T08:12:28.990Z,18.78
2018-09-10T08:14:58.252Z,18.99
2018-09-10T08:17:28.080Z,18.65
2018-09-10T08:19:57.332Z,19.16
2018-09-10T08:22:26.625Z,19.10
2018-09-10T08:24:55.977Z,19.21
2018-09-10T08:27:25.227Z,19.05
2018-09-10T08:29:54.609Z,19.16
2018-09-10T08:32:23.947Z,19.59
2018-09-10T08:34:53.339Z,20.00
2018-09-10T08:37:22.783Z,20.36
2018-09-10T08:39:52.057Z,19.87
2018-09-10T08:42:21.386Z,20.12
2018-09-10T08:44:50.638Z,20.29
2018-09-10T08:47:20.087Z,20.02
2018-09-10T08:49:49.479Z,19.78
2018-09-10T08:52:18.860Z,20.03
2018-09-10T08:54:48.642Z,20.32
2018-09-10T08:57:17.571Z,20.81
2018-09-10T08:59:46.857Z,20.83
2018-09-10T09:02:16.301Z,20.63
2018-09-10T09:04:45.580Z,21.06
2018-09-10T09:07:15.255Z,21.60
2018-09-10T09:09:44.552Z,21.51
2018-09-10T09:12:14.138Z,20.68
2018-09-10T09:14:43.652Z,21.38
2018-09-10T09:17:12.981Z,21.44
2018-09-10T09:19:42.494Z,20.66
2018-09-10T09:22:11.828Z,21.56
2018-09-10T09:24:41.295Z,22.11
2018-09-10T09:27:10.628Z,21.76
2018-09-10T09:29:40.660Z,21.76
2018-09-10T09:32:10.326Z,21.90
2018-09-10T09:34:59.436Z,22.09
2018-09-10T09:37:33.680Z,22.73
2018-09-10T09:40:08.191Z,22.97
2018-09-10T09:42:42.454Z,21.82
2018-09-10T09:46:20.371Z,22.38
2018-09-10T09:48:49.983Z,22.44
2018-09-10T09:51:20.452Z,22.61
2018-09-10T09:53:49.750Z,22.98
2018-09-10T09:56:19.026Z,22.46
2018-09-10T09:58:48.410Z,23.10
2018-09-10T10:01:22.481Z,22.80
2018-09-10T10:04:02.275Z,23.01
2018-09-10T10:06:31.636Z,23.14
2018-09-10T10:09:01.432Z,23.13
2018-09-10T10:11:30.932Z,22.99
2018-09-10T10:14:00.403Z,23.05
2018-09-10T10:16:29.856Z,23.25
2018-09-10T10:19:02.605Z,23.66
2018-09-10T10:21:32.081Z,23.60
2018-09-10T10:24:02.179Z,23.82
2018-09-10T10:26:31.591Z,23.06
2018-09-10T10:29:01.152Z,23.27
2018-09-10T10:31:31.175Z,23.79
2018-09-10T10:34:01.749Z,23.76
2018-09-10T10:36:31.193Z,23.79
2018-09-10T10:39:00.557Z,24.81
2018-09-10T10:41:29.933Z,24.37
2018-09-10T10:43:59.202Z,24.48
2018-09-10T10:46:28.509Z,24.64
2018-09-10T10:48:58.498Z,24.60
2018-09-10T10:51:28.526Z,24.95
2018-09-10T10:53:58.553Z,24.72
2018-09-10T10:56:27.983Z,24.94
2018-09-10T10:58:58.177Z,24.45
2018-09-10T11:01:27.622Z,24.84
2018-09-10T11:03:57.039Z,25.08
2018-09-10T11:06:27.079Z,24.83
2018-09-10T11:08:57.194Z,25.25
2018-09-10T11:11:26.995Z,24.89
2018-09-10T11:13:56.416Z,25.11
2018-09-10T11:16:26.950Z,25.56
2018-09-10T11:18:56.452Z,25.29
2018-09-10T11:21:26.093Z,25.41
2018-09-10T11:23:55.328Z,25.41
2018-09-10T11:26:24.911Z,25.05
2018-09-10T11:28:54.369Z,25.67
2018-09-10T11:31:23.937Z,25.48
2018-09-10T11:33:53.295Z,26.03
2018-09-10T11:36:23.140Z,26.13
2018-09-10T11:38:52.506Z,26.12
2018-09-10T11:41:21.972Z,26.13
2018-09-10T11:43:51.927Z,25.78
2018-09-10T11:46:21.882Z,25.77
2018-09-10T11:48:51.849Z,26.40
2018-09-10T11:51:21.679Z,26.42
2018-09-10T11:53:50.938Z,26.15
2018-09-10T11:56:20.467Z,26.69
2018-09-10T11:58:49.974Z,25.98
2018-09-10T12:01:19.369Z,26.08
2018-09-10T12:03:48.754Z,26.17
2018-09-10T12:06:18.250Z,25.75
2018-09-10T12:08:49.606Z,25.88
2018-09-10T12:11:19.946Z,26.75
2018-09-10T12:13:50.093Z,26.70
2018-09-10T12:16:19.620Z,26.91
2018-09-10T12:18:49.114Z,27.33
2018-09-10T12:21:18.480Z,26.89
2018-09-10T12:23:48.072Z,26.75
2018-09-10T12:26:17.791Z,26.65
2018-09-10T12:28:48.208Z,26.92
2018-09-10T12:31:17.685Z,27.15
2018-09-10T12:33:47.028Z,27.12
2018-09-10T12:36:16.799Z,27.09
2018-09-10T12:38:46.484Z,26.99
2018-09-10T12:41:16.410Z,26.99
2018-09-10T12:43:46.876Z,27.20
2018-09-10T12:46:17.777Z,26.19
2018-09-10T12:48:47.611Z,26.60
2018-09-10T12:51:17.121Z,26.36
2018-09-10T12:53:46.696Z,26.95
2018-09-10T12:56:16.225Z,27.07
2018-09-10T12:58:45.675Z,26.97
2018-09-10T13:01:15.185Z,26.82
2018-09-10T13:03:44.678Z,27.08
2018-09-10T13:06:16.066Z,26.63
2018-09-10T13:08:45.471Z,26.39
2018-09-10T13:11:14.927Z,26.48
2018-09-10T13:13:45.070Z,26.43
2018-09-10T13:16:14.461Z,26.34
2018-09-10T13:18:43.837Z,26.44
2018-09-10T13:21:13.197Z,26.39
2018-09-10T13:23:42.434Z,26.63
2018-09-10T13:26:12.013Z,26.56
2018-09-10T13:28:41.412Z,26.53
2018-09-10T13:31:10.783Z,26.67
2018-09-10T13:33:40.886Z,26.54
2018-09-10T13:36:10.951Z,26.59
2018-09-10T13:38:40.677Z,26.18
2018-09-10T13:41:09.827Z,26.28
2018-09-10T13:43:39.296Z,26.36
2018-09-10T13:46:09.409Z,26.49
2018-09-10T13:48:38.738Z,26.31
2018-09-10T13:51:08.920Z,26.63
2018-09-10T13:53:38.390Z,26.48
2018-09-10T13:56:07.779Z,26.45
2018-09-10T13:58:37.292Z,26.37
2018-09-10T14:01:06.710Z,26.45
2018-09-10T14:03:36.348Z,26.14
2018-09-10T14:06:05.618Z,26.34
2018-09-10T14:08:34.865Z,26.14
2018-09-10T14:11:04.358Z,26.23
2018-09-10T14:13:33.607Z,26.09
2018-09-10T14:16:04.086Z,26.24
2018-09-10T14:18:33.486Z,26.14
2018-09-10T14:21:02.952Z,26.03
2018-09-10T14:23:32.313Z,26.03
2018-09-10T14:26:01.787Z,26.07
2018-09-10T14:28:31.255Z,25.93
2018-09-10T14:31:00.602Z,25.63
2018-09-10T14:33:30.416Z,25.44
2018-09-10T14:36:00.101Z,25.45
2018-09-10T14:38:30.704Z,25.56
2018-09-10T14:41:00.086Z,25.65
2018-09-10T14:43:29.480Z,25.73
2018-09-10T14:45:59.030Z,25.69
2018-09-10T14:48:28.515Z,25.61
2018-09-10T14:50:58.434Z,25.76
2018-09-10T14:53:27.973Z,25.58
2018-09-10T14:55:57.331Z,25.71
2018-09-10T14:58:26.754Z,25.50
2018-09-10T15:00:57.193Z,25.26
2018-09-10T15:03:27.692Z,25.27
2018-09-10T15:05:58.459Z,25.12
2018-09-10T15:08:28.247Z,25.20
2018-09-10T15:10:57.766Z,25.17
2018-09-10T15:13:27.146Z,24.88
2018-09-10T15:15:57.774Z,24.60
2018-09-10T15:18:28.471Z,24.85
2018-09-10T15:20:57.944Z,24.83
2018-09-10T15:23:27.443Z,24.70
2018-09-10T15:25:56.928Z,24.45
2018-09-10T15:28:26.274Z,24.29
2018-09-10T15:30:55.637Z,24.29
2018-09-10T15:33:25.002Z,24.20
2018-09-10T15:35:54.435Z,24.01
2018-09-10T15:38:23.702Z,23.73
2018-09-10T15:40:55.193Z,23.65
2018-09-10T15:43:25.308Z,23.43
2018-09-10T15:45:54.770Z,23.01
2018-09-10T15:48:25.260Z,22.82
2018-09-10T15:50:54.757Z,22.62
2018-09-10T15:53:24.285Z,22.27
2018-09-10T15:55:53.706Z,22.22
2018-09-10T15:58:23.555Z,21.79
2018-09-10T16:00:53.126Z,21.64
2018-09-10T16:03:22.625Z,21.66
2018-09-10T16:05:52.203Z,21.55
2018-09-10T16:08:21.868Z,21.34
2018-09-10T16:10:51.215Z,21.25
2018-09-10T16:13:21.708Z,21.13
2018-09-10T16:15:51.678Z,20.89
2018-09-10T16:18:22.146Z,21.11
2018-09-10T16:20:51.521Z,20.98
2018-09-10T16:23:21.045Z,20.88
2018-09-10T16:25:50.599Z,20.63
2018-09-10T16:28:20.020Z,20.73
2018-09-10T16:30:49.588Z,20.60
2018-09-10T16:33:18.764Z,20.48
2018-09-10T16:35:48.217Z,20.41
2018-09-10T16:38:17.687Z,20.43
2018-09-10T16:40:47.089Z,20.26
2018-09-10T16:43:16.630Z,20.37
2018-09-10T16:45:46.253Z,20.35
2018-09-10T16:48:15.710Z,20.14
2018-09-10T16:50:45.263Z,20.01
2018-09-10T16:53:14.697Z,19.79
2018-09-10T16:55:44.145Z,19.76
2018-09-10T16:58:13.725Z,19.75
2018-09-10T17:00:43.246Z,19.77
2018-09-10T17:03:12.692Z,19.55
2018-09-10T17:05:42.886Z,19.28
2018-09-10T17:08:12.418Z,19.34
2018-09-10T17:10:41.821Z,19.25
2018-09-10T17:13:11.323Z,19.36
2018-09-10T17:15:40.860Z,19.13
2018-09-10T17:18:10.130Z,19.06
2018-09-10T17:20:39.584Z,18.77
2018-09-10T17:23:08.999Z,18.73
2018-09-10T17:25:40.642Z,18.71
2018-09-10T17:28:10.063Z,18.65
2018-09-10T17:30:39.644Z,18.63
2018-09-10T17:33:09.139Z,18.55
2018-09-10T17:35:38.488Z,18.36
2018-09-10T17:38:08.849Z,18.36
2018-09-10T17:40:38.191Z,18.10
2018-09-10T17:43:07.665Z,17.95
2018-09-10T17:45:36.950Z,17.88
2018-09-10T17:48:06.970Z,18.01
2018-09-10T17:50:37.372Z,18.00
2018-09-10T17:53:07.001Z,17.92
2018-09-10T17:55:36.474Z,17.88
2018-09-10T17:58:05.751Z,17.93
2018-09-10T18:00:39.532Z,17.68
2018-09-10T18:03:10.411Z,17.63
2018-09-10T18:05:40.577Z,17.47
2018-09-10T18:08:10.891Z,17.58
2018-09-10T18:10:40.494Z,17.62
2018-09-10T18:13:09.861Z,17.41
2018-09-10T18:15:40.087Z,17.68
2018-09-10T18:18:10.552Z,17.19
2018-09-10T18:20:40.017Z,17.12
2018-09-10T18:23:09.564Z,17.07
2018-09-10T18:25:38.804Z,16.99
2018-09-10T18:28:08.877Z,16.81
2018-09-10T18:30:38.291Z,17.03
2018-09-10T18:33:08.929Z,16.95
2018-09-10T18:35:38.378Z,17.12
2018-09-10T18:38:07.873Z,16.84
2018-09-10T18:40:37.250Z,16.74
2018-09-10T18:43:07.146Z,16.60
2018-09-10T18:45:36.627Z,16.74
2018-09-10T18:48:06.696Z,16.71
2018-09-10T18:50:36.097Z,16.42
2018-09-10T18:53:05.414Z,16.54
2018-09-10T18:55:34.729Z,16.58
2018-09-10T18:58:04.519Z,16.47
2018-09-10T19:00:33.922Z,16.42
2018-09-10T19:03:05.102Z,16.27
2018-09-10T19:05:34.636Z,16.34
2018-09-10T19:08:05.150Z,16.47
2018-09-10T19:10:35.643Z,16.31
2018-09-10T19:13:05.538Z,16.38
2018-09-10T19:15:35.761Z,16.13
2018-09-10T19:18:05.706Z,16.20
2018-09-10T19:20:35.928Z,16.02
2018-09-10T19:23:05.497Z,15.83
2018-09-10T19:25:35.705Z,15.83
2018-09-10T19:28:05.152Z,15.90
2018-09-10T19:30:34.589Z,15.92
2018-09-10T19:33:04.115Z,15.93
2018-09-10T19:35:33.664Z,15.70
2018-09-10T19:38:04.304Z,15.81
2018-09-10T19:40:33.704Z,15.55
2018-09-10T19:43:03.182Z,15.54
2018-09-10T19:45:32.721Z,15.75
2018-09-10T19:48:02.185Z,15.65
2018-09-10T19:50:32.577Z,15.43
2018-09-10T19:53:02.185Z,15.44
2018-09-10T19:55:32.196Z,15.16
2018-09-10T19:58:02.992Z,15.23
2018-09-10T20:00:32.535Z,15.20
2018-09-10T20:03:02.069Z,15.24
2018-09-10T20:05:31.486Z,15.23
2018-09-10T20:08:00.969Z,15.13
2018-09-10T20:10:30.862Z,15.09
2018-09-10T20:13:00.554Z,15.16
2018-09-10T20:15:30.096Z,14.75
2018-09-10T20:17:59.639Z,14.84
2018-09-10T20:20:29.420Z,14.92
2018-09-10T20:22:58.880Z,14.86
2018-09-10T20:25:28.292Z,14.87
2018-09-10T20:27:57.938Z,14.80
2018-09-10T20:30:27.262Z,14.57
2018-09-10T20:32:56.715Z,14.76
2018-09-10T20:35:26.064Z,14.80
2018-09-10T20:37:57.405Z,14.82
2018-09-10T20:40:26.882Z,14.88
2018-09-10T20:42:56.172Z,14.77
2018-09-10T20:45:25.448Z,14.56
2018-09-10T20:47:54.912Z,14.67
2018-09-10T20:50:24.446Z,14.33
2018-09-10T20:52:53.919Z,14.29
2018-09-10T20:55:23.207Z,14.49
2018-09-10T21:00:56.196Z,14.33
2018-09-10T21:03:25.619Z,14.35
2018-09-10T21:05:55.148Z,14.27
2018-09-10T21:08:25.663Z,14.37
2018-09-10T21:10:55.039Z,14.39
2018-09-10T21:13:25.143Z,14.23
2018-09-10T21:15:54.460Z,14.19
2018-09-10T21:18:23.757Z,14.14
2018-09-10T21:20:53.100Z,14.20
2018-09-10T21:23:22.892Z,14.02
2018-09-10T21:25:52.300Z,14.00
2018-09-10T21:28:22.371Z,14.00
2018-09-10T21:30:51.757Z,13.77
2018-09-10T21:33:21.099Z,13.93
2018-09-10T21:35:50.539Z,13.86
2018-09-10T21:38:20.026Z,13.89
2018-09-10T21:40:49.370Z,13.83
2018-09-10T21:43:18.976Z,13.96
2018-09-10T21:45:48.313Z,13.83
2018-09-10T21:48:17.616Z,13.61
2018-09-10T21:50:46.862Z,13.73
2018-09-10T21:53:16.166Z,13.83
2018-09-10T21:55:45.642Z,13.62
2018-09-10T21:58:15.059Z,13.53
2018-09-10T22:00:49.919Z,13.48
2018-09-10T22:03:19.348Z,13.40
2018-09-10T22:05:48.871Z,13.61
2018-09-10T22:08:18.147Z,13.57
2018-09-10T22:10:47.436Z,13.59
2018-09-10T22:13:16.730Z,13.57
2018-09-10T22:15:46.128Z,13.50
2018-09-10T22:18:15.412Z,13.54
2018-09-10T22:20:45.227Z,13.48
2018-09-10T22:23:14.507Z,13.44
2018-09-10T22:25:43.867Z,13.46
2018-09-10T22:28:13.274Z,13.31
2018-09-10T22:30:42.786Z,13.27
2018-09-10T22:33:12.173Z,13.12
2018-09-10T22:35:41.566Z,12.96
2018-09-10T22:38:10.815Z,13.18
2018-09-10T22:40:39.991Z,13.03
2018-09-10T22:43:09.407Z,12.95
2018-09-10T22:45:38.824Z,13.17
2018-09-10T22:48:08.229Z,13.25
2018-09-10T22:50:37.766Z,13.13
2018-09-10T22:53:07.048Z,12.98
2018-09-10T22:55:36.420Z,13.06
2018-09-10T22:58:05.903Z,12.84
2018-09-10T23:00:36.266Z,12.96
2018-09-10T23:03:05.707Z,12.79
2018-09-10T23:05:35.100Z,12.90
2018-09-10T23:08:06.209Z,12.98
2018-09-10T23:10:35.790Z,12.88
2018-09-10T23:13:05.066Z,12.63
2018-09-10T23:15:34.409Z,12.63
2018-09-10T23:18:03.981Z,12.71
2018-09-10T23:20:33.311Z,12.67
2018-09-10T23:23:03.136Z,12.78
2018-09-10T23:25:32.318Z,12.64
2018-09-10T23:28:01.650Z,12.68
2018-09-10T23:30:31.139Z,12.65
2018-09-10T23:33:00.407Z,12.70
2018-09-10T23:35:29.752Z,12.47
2018-09-10T23:37:59.230Z,12.54
2018-09-10T23:40:28.558Z,12.60
2018-09-10T23:42:57.776Z,12.65
2018-09-10T23:45:27.264Z,12.76
2018-09-10T23:47:56.914Z,12.70
2018-09-10T23:50:26.355Z,12.67
2018-09-10T23:52:55.679Z,12.59
2018-09-10T23:55:25.049Z,12.38
2018-09-10T23:57:54.260Z,12.53
